createdAt,value
2018-11-23T00:02:03.748Z,71.30
2018-11-23T00:04:31.894Z,72.97
2018-11-23T00:06:59.984Z,83.12
2018-11-23T00:09:28.182Z,75.57
2018-11-23T00:11:56.275Z,68.87
2018-11-23T00:14:24.381Z,77.05
2018-11-23T00:16:52.465Z,70.87
2018-11-23T00:19:20.544Z,91.82
2018-11-23T00:21:48.710Z,81.37
2018-11-23T00:24:16.840Z,79.50
2018-11-23T00:26:44.914Z,77.90
2018-11-23T00:29:12.997Z,75.83
2018-11-23T00:31:41.082Z,76.13
2018-11-23T00:34:09.174Z,75.15
2018-11-23T00:36:37.269Z,81.08
2018-11-23T00:39:06.394Z,83.17
2018-11-23T00:41:34.609Z,80.22
2018-11-23T00:44:02.699Z,95.43
2018-11-23T00:46:30.772Z,88.05
2018-11-23T00:48:58.901Z,84.13
2018-11-23T00:51:27.094Z,75.80
2018-11-23T00:53:55.261Z,72.17
2018-11-23T00:56:23.326Z,74.65
2018-11-23T00:58:51.384Z,78.70
2018-11-23T01:01:19.497Z,71.28
2018-11-23T01:03:47.602Z,70.78
2018-11-23T01:06:15.802Z,78.95
2018-11-23T01:08:43.900Z,78.20
2018-11-23T01:11:11.994Z,86.82
2018-11-23T01:13:40.082Z,72.15
2018-11-23T01:16:08.137Z,72.92
2018-11-23T01:18:36.217Z,64.10
2018-11-23T01:21:04.354Z,71.87
2018-11-23T01:23:32.584Z,77.93
2018-11-23T01:26:00.770Z,79.22
2018-11-23T01:28:28.893Z,64.47
2018-11-23T01:30:56.993Z,71.25
2018-11-23T01:33:25.144Z,68.12
2018-11-23T01:35:53.411Z,73.62
2018-11-23T01:38:21.512Z,78.85
2018-11-23T01:40:49.703Z,77.75
2018-11-23T01:43:17.808Z,65.47
2018-11-23T01:45:45.980Z,71.60
2018-11-23T01:48:14.062Z,67.15
2018-11-23T01:50:42.246Z,77.12
2018-11-23T01:53:10.458Z,66.85
2018-11-23T01:55:38.614Z,67.32
2018-11-23T01:58:06.709Z,65.57
2018-11-23T02:00:34.837Z,67.65
2018-11-23T02:03:02.974Z,71.25
2018-11-23T02:05:31.070Z,78.80
2018-11-23T02:07:59.150Z,72.80
2018-11-23T02:10:27.337Z,70.32
2018-11-23T02:12:55.502Z,66.22
2018-11-23T02:15:23.767Z,69.42
2018-11-23T02:17:52.293Z,68.28
2018-11-23T02:20:21.178Z,77.20
2018-11-23T02:22:49.313Z,71.97
2018-11-23T02:25:17.438Z,75.12
2018-11-23T02:27:45.533Z,71.70
2018-11-23T02:30:16.756Z,70.87
2018-11-23T02:32:44.961Z,76.90
2018-11-23T02:35:13.738Z,72.42
2018-11-23T02:37:41.800Z,71.17
2018-11-23T02:40:10.981Z,68.02
2018-11-23T02:42:39.470Z,65.05
2018-11-23T02:45:09.483Z,66.87
2018-11-23T02:47:37.818Z,57.53
2018-11-23T02:50:06.197Z,63.85
2018-11-23T02:52:34.326Z,67.72
2018-11-23T02:55:02.406Z,71.25
2018-11-23T02:57:30.521Z,68.00
2018-11-23T02:59:58.708Z,71.92
2018-11-23T03:02:26.855Z,71.07
2018-11-23T03:04:54.950Z,74.30
2018-11-23T03:07:23.102Z,70.92
2018-11-23T03:09:51.207Z,74.42
2018-11-23T03:12:19.329Z,77.22
2018-11-23T03:14:47.406Z,81.83
2018-11-23T03:17:15.665Z,69.45
2018-11-23T03:19:43.750Z,70.47
2018-11-23T03:22:11.849Z,57.40
2018-11-23T03:24:40.025Z,63.95
2018-11-23T03:27:08.182Z,59.38
2018-11-23T03:29:36.261Z,62.10
2018-11-23T03:32:04.613Z,62.98
2018-11-23T03:34:32.723Z,69.60
2018-11-23T03:37:00.872Z,65.28
2018-11-23T03:39:34.065Z,58.73
2018-11-23T03:41:57.294Z,61.00
2018-11-23T03:44:25.438Z,58.65
2018-11-23T03:46:53.737Z,69.20
2018-11-23T03:49:21.908Z,67.40
2018-11-23T03:51:50.038Z,68.22
2018-11-23T03:54:18.172Z,67.72
2018-11-23T03:56:46.323Z,64.67
2018-11-23T03:59:14.444Z,65.70
2018-11-23T04:01:42.561Z,72.23
2018-11-23T04:04:10.659Z,75.85
2018-11-23T04:06:38.804Z,65.75
2018-11-23T04:09:08.118Z,64.50
2018-11-23T04:11:36.268Z,68.28
2018-11-23T04:14:04.570Z,71.30
2018-11-23T04:16:32.687Z,67.90
2018-11-23T04:19:00.809Z,68.00
2018-11-23T04:21:29.032Z,65.52
2018-11-23T04:23:57.202Z,62.90
2018-11-23T04:26:25.345Z,60.10
2018-11-23T04:28:53.529Z,58.87
2018-11-23T04:31:21.667Z,66.92
2018-11-23T04:33:49.764Z,72.90
2018-11-23T04:36:17.866Z,60.50
2018-11-23T04:38:46.170Z,63.10
2018-11-23T04:41:14.281Z,68.35
2018-11-23T04:43:42.443Z,72.78
2018-11-23T04:46:10.640Z,63.50
2018-11-23T04:48:38.836Z,66.57
2018-11-23T04:51:07.045Z,65.08
2018-11-23T04:53:35.254Z,68.40
2018-11-23T04:56:03.453Z,67.62
2018-11-23T04:58:31.714Z,66.62
2018-11-23T05:00:59.871Z,61.92
2018-11-23T05:03:28.008Z,66.97
2018-11-23T05:05:56.125Z,64.67
2018-11-23T05:08:24.512Z,67.67
2018-11-23T05:10:52.768Z,62.33
2018-11-23T05:14:55.988Z,60.20
2018-11-23T05:17:24.175Z,59.20
2018-11-23T05:19:52.360Z,71.85
2018-11-23T05:22:20.492Z,68.47
2018-11-23T05:24:48.629Z,70.17
2018-11-23T05:27:16.776Z,66.13
2018-11-23T05:29:45.106Z,64.72
2018-11-23T05:32:13.228Z,69.17
2018-11-23T05:34:41.494Z,70.10
2018-11-23T05:37:09.642Z,75.60
2018-11-23T05:39:37.778Z,71.77
2018-11-23T05:42:05.986Z,73.33
2018-11-23T05:44:34.189Z,72.72
2018-11-23T05:47:02.320Z,79.60
2018-11-23T05:49:30.519Z,80.77
2018-11-23T05:51:58.649Z,78.17
2018-11-23T05:54:26.770Z,80.57
2018-11-23T05:56:55.018Z,77.85
2018-11-23T05:59:23.298Z,69.65
2018-11-23T06:01:51.728Z,76.17
2018-11-23T06:04:20.081Z,72.67
2018-11-23T06:06:48.225Z,76.63
2018-11-23T06:09:16.488Z,73.70
2018-11-23T06:11:44.712Z,77.67
2018-11-23T06:14:12.846Z,71.92
2018-11-23T06:16:40.977Z,75.10
2018-11-23T06:19:09.203Z,79.05
2018-11-23T06:21:37.458Z,76.33
2018-11-23T06:24:06.176Z,80.30
2018-11-23T06:26:34.756Z,70.15
2018-11-23T06:29:02.966Z,71.72
2018-11-23T06:31:31.265Z,78.70
2018-11-23T06:33:59.375Z,77.05
2018-11-23T06:36:27.523Z,75.97
2018-11-23T06:38:55.697Z,75.50
2018-11-23T06:41:23.935Z,75.85
2018-11-23T06:43:52.162Z,81.23
2018-11-23T06:46:20.339Z,94.75
2018-11-23T06:48:48.461Z,92.57
2018-11-23T06:51:16.578Z,83.33
2018-11-23T06:53:44.752Z,90.17
2018-11-23T06:56:12.986Z,94.35
2018-11-23T06:58:41.102Z,82.88
2018-11-23T07:01:09.298Z,81.37
2018-11-23T07:03:37.448Z,82.90
2018-11-23T07:06:05.653Z,86.00
2018-11-23T07:08:33.821Z,91.05
2018-11-23T07:11:03.169Z,104.20
2018-11-23T07:13:32.121Z,77.97
2018-11-23T07:16:00.491Z,81.47
2018-11-23T07:18:28.946Z,73.67
2018-11-23T07:20:57.218Z,80.87
2018-11-23T07:23:26.439Z,83.70
2018-11-23T07:25:54.690Z,92.92
2018-11-23T07:28:22.894Z,87.70
2018-11-23T07:30:51.056Z,94.13
2018-11-23T07:33:19.237Z,89.47
2018-11-23T07:35:47.409Z,87.90
2018-11-23T07:38:15.590Z,86.55
2018-11-23T07:40:55.661Z,91.55
2018-11-23T07:43:23.992Z,82.57
2018-11-23T07:45:52.105Z,81.28
2018-11-23T07:48:21.274Z,88.85
2018-11-23T07:50:49.429Z,77.55
2018-11-23T07:53:17.608Z,73.37
2018-11-23T07:55:45.852Z,72.30
2018-11-23T07:58:13.995Z,79.62
2018-11-23T08:00:42.121Z,79.80
2018-11-23T08:03:10.304Z,93.62
2018-11-23T08:05:38.450Z,91.15
2018-11-23T08:08:06.706Z,79.65
2018-11-23T08:10:34.118Z,85.03
2018-11-23T08:13:02.357Z,80.07
2018-11-23T08:15:30.474Z,80.67
2018-11-23T08:17:58.637Z,80.97
2018-11-23T08:20:26.815Z,91.53
2018-11-23T08:22:55.023Z,85.95
2018-11-23T08:25:24.087Z,86.63
2018-11-23T08:27:53.585Z,73.90
2018-11-23T08:30:23.198Z,75.12
2018-11-23T08:32:51.317Z,75.17
2018-11-23T08:35:19.458Z,67.47
2018-11-23T08:37:47.709Z,67.55
2018-11-23T08:40:18.800Z,71.75
2018-11-23T08:42:47.853Z,73.78
2018-11-23T08:45:20.894Z,72.08
2018-11-23T08:47:49.186Z,71.10
2018-11-23T08:50:20.050Z,71.67
2018-11-23T08:52:48.186Z,68.35
2018-11-23T08:55:17.117Z,70.15
2018-11-23T08:57:45.261Z,72.12
2018-11-23T09:00:17.716Z,65.83
2018-11-23T09:02:46.970Z,67.12
2018-11-23T09:05:15.663Z,68.28
2018-11-23T09:07:44.754Z,67.60
2018-11-23T09:10:15.193Z,63.83
2018-11-23T09:12:44.428Z,64.87
2018-11-23T09:15:13.871Z,66.57
2018-11-23T09:17:42.676Z,66.87
2018-11-23T09:20:11.809Z,62.98
2018-11-23T09:22:39.921Z,62.75
2018-11-23T09:25:10.265Z,62.33
2018-11-23T09:27:38.469Z,60.57
2018-11-23T09:30:10.909Z,60.30
2018-11-23T09:32:39.029Z,62.62
2018-11-23T09:35:07.948Z,62.40
2018-11-23T09:37:36.370Z,58.98
2018-11-23T09:40:06.037Z,59.33
2018-11-23T09:42:34.228Z,59.65
2018-11-23T09:45:02.345Z,54.90
2018-11-23T09:47:30.507Z,57.03
2018-11-23T09:49:58.627Z,56.45
2018-11-23T09:52:26.725Z,55.58
2018-11-23T09:54:54.882Z,54.20
2018-11-23T09:57:23.034Z,55.10
2018-11-23T09:59:51.143Z,55.20
2018-11-23T10:02:19.238Z,54.40
2018-11-23T10:04:47.366Z,50.23
2018-11-23T10:07:15.451Z,49.63
2018-11-23T10:09:43.620Z,52.77
2018-11-23T10:12:11.700Z,49.38
2018-11-23T10:14:39.984Z,46.35
2018-11-23T10:18:11.936Z,42.00
2018-11-23T10:20:40.091Z,39.27
2018-11-23T10:23:08.227Z,39.90
2018-11-23T10:25:36.810Z,38.28
2018-11-23T10:28:05.005Z,37.83
2018-11-23T10:30:34.588Z,37.40
2018-11-23T10:33:04.078Z,36.60
2018-11-23T10:35:32.266Z,35.80
2018-11-23T10:38:01.777Z,35.68
2018-11-23T10:40:31.398Z,35.38
2018-11-23T10:42:59.536Z,35.05
2018-11-23T10:45:29.071Z,33.90
2018-11-23T10:47:58.096Z,34.30
2018-11-23T10:50:27.889Z,35.50
2018-11-23T10:52:56.031Z,33.50
2018-11-23T10:55:25.793Z,32.20
2018-11-23T10:57:54.251Z,34.73
2018-11-23T11:00:27.935Z,33.38
2018-11-23T11:03:01.512Z,35.20
2018-11-23T11:05:31.302Z,34.88
2018-11-23T11:08:00.860Z,37.67
2018-11-23T11:10:29.118Z,37.98
2018-11-23T11:12:57.326Z,35.33
2018-11-23T11:15:25.503Z,36.98
2018-11-23T11:17:53.648Z,35.78
2018-11-23T11:20:21.922Z,35.48
2018-11-23T11:22:50.277Z,36.25
2018-11-23T11:25:18.388Z,36.95
2018-11-23T11:27:46.490Z,35.80
2018-11-23T11:30:16.093Z,35.90
2018-11-23T11:32:44.881Z,38.35
2018-11-23T11:35:13.464Z,34.00
2018-11-23T11:37:42.126Z,34.78
2018-11-23T11:40:12.369Z,36.73
2018-11-23T11:42:41.062Z,35.35
2018-11-23T11:45:11.077Z,36.90
2018-11-23T11:47:39.286Z,34.78
2018-11-23T11:50:09.030Z,35.50
2018-11-23T11:52:38.395Z,33.25
2018-11-23T11:55:07.990Z,32.95
2018-11-23T11:57:36.182Z,34.10
2018-11-23T12:00:04.846Z,34.50
2018-11-23T12:02:33.111Z,31.17
2018-11-23T12:05:01.239Z,32.23
2018-11-23T12:08:16.574Z,33.23
2018-11-23T12:10:44.904Z,32.63
2018-11-23T12:13:13.020Z,31.50
2018-11-23T12:15:41.166Z,31.90
2018-11-23T12:18:09.389Z,33.00
2018-11-23T12:20:37.743Z,32.10
2018-11-23T12:23:05.952Z,32.05
2018-11-23T12:25:34.741Z,32.53
2018-11-23T12:28:05.548Z,32.25
2018-11-23T12:30:33.813Z,30.90
2018-11-23T12:33:02.094Z,29.65
2018-11-23T12:35:31.026Z,28.00
2018-11-23T12:37:59.199Z,29.02
2018-11-23T12:40:27.290Z,28.45
2018-11-23T12:42:55.410Z,25.72
2018-11-23T12:45:23.905Z,25.27
2018-11-23T12:47:52.183Z,28.02
2018-11-23T12:50:21.781Z,26.37
2018-11-23T12:52:50.036Z,26.50
2018-11-23T12:55:18.874Z,24.95
2018-11-23T12:57:47.062Z,26.75
2018-11-23T13:00:19.362Z,26.15
2018-11-23T13:02:48.896Z,26.37
2018-11-23T13:05:17.178Z,25.68
2018-11-23T13:07:45.405Z,27.30
2018-11-23T13:10:13.505Z,26.73
2018-11-23T13:12:41.618Z,27.05
2018-11-23T13:15:09.784Z,27.05
2018-11-23T13:17:37.885Z,25.62
2018-11-23T13:20:08.521Z,26.02
2018-11-23T13:22:36.821Z,25.95
2018-11-23T13:25:07.472Z,25.12
2018-11-23T13:27:35.544Z,26.35
2018-11-23T13:30:03.778Z,24.92
2018-11-23T13:32:31.870Z,25.62
2018-11-23T13:35:00.063Z,23.73
2018-11-23T13:37:28.117Z,21.87
2018-11-23T13:39:56.202Z,24.10
2018-11-23T13:42:24.313Z,24.12
2018-11-23T13:44:52.380Z,22.58
2018-11-23T13:47:20.547Z,23.35
2018-11-23T13:49:48.718Z,22.65
2018-11-23T13:52:16.765Z,21.77
2018-11-23T13:54:44.864Z,23.57
2018-11-23T13:57:12.937Z,23.65
2018-11-23T13:59:41.127Z,24.67
2018-11-23T14:02:09.206Z,24.23
2018-11-23T14:04:37.283Z,26.37
2018-11-23T14:07:05.365Z,25.17
2018-11-23T14:09:33.472Z,23.40
2018-11-23T14:12:01.531Z,26.48
2018-11-23T14:14:29.614Z,24.25
2018-11-23T14:16:57.722Z,25.70
2018-11-23T14:19:25.825Z,25.83
2018-11-23T14:21:54.978Z,25.62
2018-11-23T14:24:23.137Z,26.65
2018-11-23T14:26:51.286Z,24.02
2018-11-23T14:29:19.394Z,25.97
2018-11-23T14:31:47.497Z,26.60
2018-11-23T14:34:15.754Z,26.27
2018-11-23T14:36:43.882Z,26.27
2018-11-23T14:39:13.059Z,27.25
2018-11-23T14:41:40.129Z,26.30
2018-11-23T14:44:08.193Z,29.92
2018-11-23T14:46:36.309Z,27.13
2018-11-23T14:49:04.430Z,28.65
2018-11-23T14:51:32.537Z,29.65
2018-11-23T14:54:00.781Z,27.67
2018-11-23T14:56:28.906Z,30.43
2018-11-23T14:58:57.053Z,31.05
2018-11-23T15:01:25.730Z,32.78
2018-11-23T15:03:53.982Z,30.30
2018-11-23T15:06:22.108Z,30.30
2018-11-23T15:08:50.309Z,30.48
2018-11-23T15:11:18.517Z,33.05
2018-11-23T15:13:46.693Z,31.15
2018-11-23T15:16:14.838Z,31.80
2018-11-23T15:18:43.056Z,32.13
2018-11-23T15:21:11.355Z,31.68
2018-11-23T15:23:39.514Z,32.55
2018-11-23T15:26:07.620Z,33.42
2018-11-23T15:28:35.758Z,33.23
2018-11-23T15:31:03.882Z,33.55
2018-11-23T15:33:32.027Z,32.75
2018-11-23T15:36:00.152Z,32.55
2018-11-23T15:38:28.234Z,32.93
2018-11-23T15:40:56.352Z,32.50
2018-11-23T15:43:24.458Z,34.03
2018-11-23T15:45:52.589Z,33.33
2018-11-23T15:48:20.690Z,39.07
2018-11-23T15:50:48.864Z,37.05
2018-11-23T15:53:17.148Z,35.68
2018-11-23T15:55:45.335Z,36.40
2018-11-23T15:58:14.893Z,37.55
2018-11-23T16:00:44.501Z,38.95
2018-11-23T16:03:13.437Z,37.00
2018-11-23T16:05:41.544Z,38.88
2018-11-23T16:08:13.162Z,39.18
2018-11-23T16:10:41.265Z,36.40
2018-11-23T16:13:11.501Z,37.70
2018-11-23T16:15:38.611Z,40.58
2018-11-23T16:18:06.949Z,37.90
2018-11-23T16:20:37.432Z,38.42
2018-11-23T16:23:07.360Z,40.28
2018-11-23T16:25:35.598Z,41.68
2018-11-23T16:28:05.946Z,41.92
2018-11-23T16:30:35.478Z,40.52
2018-11-23T16:33:04.853Z,40.77
2018-11-23T16:35:34.487Z,40.35
2018-11-23T16:38:04.124Z,39.50
2018-11-23T16:40:33.554Z,39.42
2018-11-23T16:43:02.296Z,39.40
2018-11-23T16:45:31.769Z,41.70
2018-11-23T16:48:00.972Z,40.55
2018-11-23T16:50:29.368Z,43.92
2018-11-23T16:52:57.834Z,44.30
2018-11-23T16:55:26.316Z,44.43
2018-11-23T16:58:13.028Z,44.15
2018-11-23T17:00:42.944Z,43.02
2018-11-23T17:03:12.960Z,44.25
2018-11-23T17:05:42.569Z,44.53
2018-11-23T17:08:10.953Z,45.25
2018-11-23T17:10:39.065Z,46.63
2018-11-23T17:13:07.235Z,44.67
2018-11-23T17:15:35.334Z,43.42
2018-11-23T17:18:03.476Z,42.57
2018-11-23T17:20:32.801Z,44.85
2018-11-23T17:23:01.930Z,45.08
2018-11-23T17:25:30.725Z,46.80
2018-11-23T17:28:00.124Z,44.70
2018-11-23T17:30:29.559Z,47.60
2018-11-23T17:32:57.720Z,45.75
2018-11-23T17:35:26.173Z,43.40
2018-11-23T17:37:54.350Z,43.73
2018-11-23T17:40:23.676Z,45.38
2018-11-23T17:42:51.904Z,42.90
2018-11-23T17:45:21.774Z,43.78
2018-11-23T17:47:50.666Z,42.65
2018-11-23T17:50:20.272Z,43.35
2018-11-23T17:52:49.041Z,42.65
2018-11-23T17:55:17.162Z,47.25
2018-11-23T17:57:45.811Z,45.55
2018-11-23T18:00:15.506Z,44.03
2018-11-23T18:02:44.363Z,44.75
2018-11-23T18:05:13.806Z,41.95
2018-11-23T18:07:41.937Z,42.53
2018-11-23T18:10:13.216Z,40.90
2018-11-23T18:12:41.393Z,40.65
2018-11-23T18:15:11.429Z,39.55
2018-11-23T18:17:39.531Z,38.33
2018-11-23T18:20:12.071Z,40.00
2018-11-23T18:22:40.580Z,42.20
2018-11-23T18:25:11.313Z,37.85
2018-11-23T18:27:39.566Z,40.40
2018-11-23T18:30:09.431Z,40.90
2018-11-23T18:32:37.605Z,40.90
2018-11-23T18:35:07.119Z,40.73
2018-11-23T18:37:35.377Z,43.33
2018-11-23T18:40:09.188Z,42.27
2018-11-23T18:42:37.280Z,43.15
2018-11-23T18:45:08.901Z,46.02
2018-11-23T18:47:37.130Z,47.10
2018-11-23T18:50:07.341Z,46.23
2018-11-23T18:52:35.497Z,48.35
2018-11-23T18:55:03.597Z,47.23
2018-11-23T18:57:32.042Z,46.63
2018-11-23T19:00:00.153Z,47.43
2018-11-23T19:02:28.230Z,43.73
2018-11-23T19:04:56.333Z,47.53
2018-11-23T19:07:24.494Z,50.63
2018-11-23T19:09:52.590Z,45.83
2018-11-23T19:12:20.750Z,46.10
2018-11-23T19:14:48.829Z,47.85
2018-11-23T19:17:17.021Z,45.67
2018-11-23T19:19:45.094Z,47.10
2018-11-23T19:22:13.358Z,51.08
2018-11-23T19:24:41.443Z,44.00
2018-11-23T19:27:09.686Z,42.40
2018-11-23T19:29:38.231Z,44.35
2018-11-23T19:32:06.363Z,43.73
2018-11-23T19:34:34.454Z,43.17
2018-11-23T19:37:03.653Z,45.10
2018-11-23T19:39:31.783Z,40.48
2018-11-23T19:41:59.877Z,43.85
2018-11-23T19:44:28.000Z,42.05
2018-11-23T19:46:56.093Z,43.05
2018-11-23T19:49:24.277Z,42.20
2018-11-23T19:51:52.345Z,39.25
2018-11-23T19:54:20.485Z,41.15
2018-11-23T19:56:48.573Z,42.03
2018-11-23T19:59:16.698Z,40.77
2018-11-23T20:01:44.845Z,43.13
2018-11-23T20:04:13.095Z,42.08
2018-11-23T20:06:42.823Z,43.52
2018-11-23T20:09:09.950Z,40.58
2018-11-23T20:11:38.298Z,40.03
2018-11-23T20:14:06.729Z,43.08
2018-11-23T20:16:34.854Z,43.00
2018-11-23T20:19:02.961Z,45.75
2018-11-23T20:21:31.211Z,42.08
2018-11-23T20:23:59.304Z,43.90
2018-11-23T20:26:27.350Z,43.52
2018-11-23T20:28:55.422Z,44.20
2018-11-23T20:31:23.607Z,44.85
2018-11-23T20:33:51.711Z,45.67
2018-11-23T20:36:19.861Z,45.27
2018-11-23T20:38:48.022Z,44.13
2018-11-23T20:41:16.122Z,49.48
2018-11-23T20:43:44.206Z,46.55
2018-11-23T20:46:12.310Z,46.77
2018-11-23T20:48:40.460Z,49.80
2018-11-23T20:51:08.589Z,50.58
2018-11-23T20:53:36.674Z,46.50
2018-11-23T20:56:04.773Z,48.70
2018-11-23T20:58:33.142Z,49.95
2018-11-23T21:01:01.375Z,47.63
2018-11-23T21:03:29.597Z,48.42
2018-11-23T21:05:57.723Z,49.98
2018-11-23T21:08:25.919Z,48.70
2018-11-23T21:10:54.054Z,49.38
2018-11-23T21:13:22.217Z,50.50
2018-11-23T21:15:50.485Z,50.30
2018-11-23T21:18:18.570Z,48.65
2018-11-23T21:20:46.809Z,48.20
2018-11-23T21:23:15.057Z,47.17
2018-11-23T21:25:43.188Z,46.28
2018-11-23T21:28:12.001Z,46.90
2018-11-23T21:30:40.161Z,46.60
2018-11-23T21:33:08.292Z,48.02
2018-11-23T21:35:36.383Z,43.67
2018-11-23T21:38:04.743Z,46.77
2018-11-23T21:40:32.960Z,43.55
2018-11-23T21:43:01.262Z,44.85
2018-11-23T21:45:29.407Z,43.35
2018-11-23T21:47:57.580Z,46.98
2018-11-23T21:50:25.933Z,42.60
2018-11-23T21:52:53.838Z,43.10
2018-11-23T21:55:22.965Z,43.45
2018-11-23T21:57:51.787Z,42.40
2018-11-23T22:00:19.908Z,44.23
2018-11-23T22:02:48.024Z,40.65
2018-11-23T22:05:16.231Z,42.10
2018-11-23T22:07:44.321Z,41.83
2018-11-23T22:10:13.595Z,42.78
2018-11-23T22:12:41.764Z,42.03
2018-11-23T22:15:11.509Z,41.10
2018-11-23T22:17:39.636Z,42.95
2018-11-23T22:20:12.928Z,39.38
2018-11-23T22:22:41.150Z,39.90
2018-11-23T22:25:10.682Z,41.90
2018-11-23T22:27:38.837Z,41.20
2018-11-23T22:30:16.602Z,40.48
2018-11-23T22:32:44.875Z,40.73
2018-11-23T22:35:13.262Z,39.73
2018-11-23T22:37:41.375Z,40.55
2018-11-23T22:40:11.847Z,41.50
2018-11-23T22:42:40.319Z,41.18
2018-11-23T22:45:09.938Z,40.70
2018-11-23T22:47:38.045Z,38.98
2018-11-23T22:50:08.630Z,41.20
2018-11-23T22:52:36.802Z,36.85
2018-11-23T22:55:05.579Z,38.57
2018-11-23T22:57:33.741Z,39.58
2018-11-23T23:00:01.855Z,37.25
2018-11-23T23:02:29.970Z,38.02
2018-11-23T23:04:58.178Z,38.17
2018-11-23T23:07:26.258Z,38.33
2018-11-23T23:09:54.390Z,37.88
2018-11-23T23:12:22.534Z,38.60
2018-11-23T23:14:50.683Z,38.28
2018-11-23T23:17:18.769Z,37.98
2018-11-23T23:19:46.940Z,36.93
2018-11-23T23:22:15.087Z,38.00
2018-11-23T23:24:43.226Z,37.88
2018-11-23T23:27:11.321Z,37.93
2018-11-23T23:29:39.420Z,38.10
2018-11-23T23:32:07.529Z,36.45
2018-11-23T23:34:35.693Z,35.05
2018-11-23T23:37:03.777Z,36.98
2018-11-23T23:39:32.001Z,38.00
2018-11-23T23:42:00.091Z,37.45
2018-11-23T23:44:28.185Z,35.35
2018-11-23T23:46:56.366Z,36.73
2018-11-23T23:49:24.484Z,36.60
2018-11-23T23:51:52.583Z,37.93
2018-11-23T23:54:20.724Z,39.38
2018-11-23T23:56:48.794Z,37.85
2018-11-23T23:59:16.860Z,36.75
